createdAt,value
2022-12-31T00:00:09.229Z,16.15
2022-12-31T00:01:13.801Z,16.15
2022-12-31T00:02:16.612Z,16.10
2022-12-31T00:03:19.546Z,14.82
2022-12-31T00:04:22.359Z,15.60
2022-12-31T00:05:25.125Z,16.30
2022-12-31T00:06:30.660Z,16.38
2022-12-31T00:08:37.504Z,15.75
2022-12-31T00:09:40.487Z,15.27
2022-12-31T00:10:43.252Z,15.60
2022-12-31T00:11:46.049Z,14.75
2022-12-31T00:12:48.950Z,15.88
2022-12-31T00:13:52.339Z,15.45
2022-12-31T00:14:55.074Z,15.35
2022-12-31T00:16:16.399Z,15.23
2022-12-31T00:17:19.071Z,16.45
2022-12-31T00:18:21.930Z,14.73
2022-12-31T00:19:24.660Z,16.33
2022-12-31T00:20:27.374Z,15.20
2022-12-31T00:21:31.293Z,17.00
2022-12-31T00:22:34.066Z,15.77
2022-12-31T00:23:37.301Z,16.13
2022-12-31T00:24:40.097Z,17.48
2022-12-31T00:25:42.922Z,16.42
2022-12-31T00:26:45.707Z,14.32
2022-12-31T00:27:48.517Z,16.75
2022-12-31T00:28:52.175Z,15.75
2022-12-31T00:29:57.194Z,16.60
2022-12-31T00:31:12.599Z,15.55
2022-12-31T00:32:15.498Z,15.73
2022-12-31T00:33:18.277Z,15.80
2022-12-31T00:34:21.083Z,16.55
2022-12-31T00:35:23.932Z,16.75
2022-12-31T00:36:38.186Z,16.52
2022-12-31T00:37:41.093Z,17.80
2022-12-31T00:38:46.216Z,16.00
2022-12-31T00:39:48.933Z,16.15
2022-12-31T00:40:51.781Z,16.60
2022-12-31T00:41:54.515Z,17.27
2022-12-31T00:42:57.310Z,17.05
2022-12-31T00:44:00.470Z,16.52
2022-12-31T00:45:03.424Z,17.58
2022-12-31T00:46:07.534Z,16.25
2022-12-31T00:47:10.686Z,16.92
2022-12-31T00:48:13.368Z,16.85
2022-12-31T00:49:16.248Z,17.80
2022-12-31T00:50:18.949Z,16.27
2022-12-31T00:51:23.747Z,16.08
2022-12-31T00:52:26.451Z,16.02
2022-12-31T00:53:29.703Z,16.85
2022-12-31T00:54:32.488Z,18.00
2022-12-31T00:55:35.272Z,17.15
2022-12-31T00:56:38.062Z,17.70
2022-12-31T00:57:40.816Z,19.27
2022-12-31T00:58:43.992Z,17.08
2022-12-31T00:59:46.692Z,16.70
2022-12-31T01:00:49.453Z,17.55
2022-12-31T01:01:52.398Z,17.90
2022-12-31T01:02:55.371Z,16.88
2022-12-31T01:04:01.421Z,16.92
2022-12-31T01:05:04.328Z,17.77
2022-12-31T01:06:07.405Z,16.90
2022-12-31T01:07:10.686Z,17.05
2022-12-31T01:08:13.547Z,17.25
2022-12-31T01:09:17.569Z,15.48
2022-12-31T01:10:40.264Z,17.75
2022-12-31T01:11:43.490Z,16.58
2022-12-31T01:12:46.295Z,16.83
2022-12-31T01:13:54.791Z,16.38
2022-12-31T01:14:57.491Z,15.68
2022-12-31T01:16:08.222Z,18.60
2022-12-31T01:18:13.691Z,14.57
2022-12-31T01:19:27.897Z,16.95
2022-12-31T01:20:30.926Z,16.30
2022-12-31T01:21:35.262Z,15.57
2022-12-31T01:22:37.928Z,15.90
2022-12-31T01:23:41.145Z,15.50
2022-12-31T01:24:43.857Z,17.08
2022-12-31T01:25:46.624Z,17.13
2022-12-31T01:26:49.383Z,15.07
2022-12-31T01:27:52.146Z,15.35
2022-12-31T01:28:55.210Z,15.52
2022-12-31T01:29:58.095Z,15.20
2022-12-31T01:31:07.393Z,13.85
2022-12-31T01:32:10.205Z,14.88
2022-12-31T01:33:12.967Z,15.05
2022-12-31T01:34:15.704Z,14.60
2022-12-31T01:35:19.197Z,15.30
2022-12-31T01:36:27.151Z,15.07
2022-12-31T01:37:29.889Z,14.50
2022-12-31T01:38:33.869Z,15.20
2022-12-31T01:39:37.055Z,13.60
2022-12-31T01:40:40.749Z,13.95
2022-12-31T01:41:45.544Z,14.98
2022-12-31T01:42:55.536Z,13.27
2022-12-31T01:44:00.557Z,14.05
2022-12-31T01:45:03.521Z,13.95
2022-12-31T01:46:06.272Z,13.70
2022-12-31T01:47:15.921Z,15.70
2022-12-31T01:48:22.807Z,15.55
2022-12-31T01:49:38.630Z,14.85
2022-12-31T01:50:41.640Z,15.15
2022-12-31T01:51:48.068Z,13.48
2022-12-31T01:52:54.711Z,15.10
2022-12-31T01:53:58.405Z,13.45
2022-12-31T01:55:17.241Z,13.90
2022-12-31T01:56:21.179Z,13.68
2022-12-31T01:57:26.801Z,14.63
2022-12-31T01:58:40.448Z,14.57
2022-12-31T01:59:43.856Z,14.02
2022-12-31T02:00:47.432Z,13.75
2022-12-31T02:01:53.287Z,14.13
2022-12-31T02:02:56.139Z,14.40
2022-12-31T02:03:59.401Z,14.88
2022-12-31T02:05:05.448Z,13.05
2022-12-31T02:06:13.719Z,13.70
2022-12-31T02:07:16.726Z,13.50
2022-12-31T02:08:19.719Z,13.73
2022-12-31T02:09:22.481Z,12.88
2022-12-31T02:10:25.435Z,13.63
2022-12-31T02:11:32.939Z,13.57
2022-12-31T02:12:36.671Z,13.80
2022-12-31T02:13:39.406Z,13.90
2022-12-31T02:14:44.911Z,12.80
2022-12-31T02:16:06.657Z,12.63
2022-12-31T02:17:40.648Z,11.70
2022-12-31T02:18:50.960Z,12.05
2022-12-31T02:20:22.047Z,12.02
2022-12-31T02:23:59.595Z,10.82
2022-12-31T02:25:17.020Z,12.98
2022-12-31T02:26:42.814Z,11.73
2022-12-31T02:28:11.439Z,12.00
2022-12-31T02:29:51.453Z,13.32
2022-12-31T02:31:18.853Z,12.00
2022-12-31T02:32:50.765Z,11.32
2022-12-31T02:33:58.464Z,12.05
2022-12-31T02:35:13.912Z,12.68
2022-12-31T02:36:20.764Z,10.65
2022-12-31T02:37:25.395Z,11.55
2022-12-31T02:38:31.433Z,11.85
2022-12-31T02:39:34.775Z,12.18
2022-12-31T02:40:38.844Z,11.57
2022-12-31T02:41:50.582Z,12.35
2022-12-31T02:42:55.525Z,11.27
2022-12-31T02:43:58.613Z,11.43
2022-12-31T02:45:01.360Z,12.02
2022-12-31T02:46:13.849Z,11.68
2022-12-31T02:47:31.621Z,11.70
2022-12-31T02:49:11.251Z,11.85
2022-12-31T02:50:38.044Z,11.98
2022-12-31T02:51:51.570Z,11.38
2022-12-31T02:53:05.149Z,11.35
2022-12-31T02:54:12.381Z,11.35
2022-12-31T02:55:41.323Z,12.07
2022-12-31T02:57:26.628Z,10.52
2022-12-31T02:59:04.087Z,10.77
2022-12-31T03:00:33.863Z,10.82
2022-12-31T03:02:00.417Z,12.40
2022-12-31T03:03:04.423Z,11.52
2022-12-31T03:04:25.652Z,10.65
2022-12-31T03:05:32.415Z,11.48
2022-12-31T03:06:35.414Z,12.68
2022-12-31T03:07:40.502Z,11.40
2022-12-31T03:09:01.941Z,12.02
2022-12-31T03:10:04.967Z,11.05
2022-12-31T03:11:27.627Z,11.20
2022-12-31T03:12:48.114Z,10.73
2022-12-31T03:13:51.128Z,11.32
2022-12-31T03:14:54.304Z,11.77
2022-12-31T03:15:57.205Z,10.10
2022-12-31T03:16:59.967Z,10.73
2022-12-31T03:18:14.725Z,11.55
2022-12-31T03:19:36.059Z,10.63
2022-12-31T03:22:19.762Z,9.95
2022-12-31T03:23:26.416Z,10.65
2022-12-31T03:24:48.023Z,10.15
2022-12-31T03:25:50.781Z,10.60
2022-12-31T03:26:53.511Z,9.75
2022-12-31T03:27:56.318Z,9.57
2022-12-31T03:28:59.038Z,9.43
2022-12-31T03:30:01.785Z,9.30
2022-12-31T03:31:05.466Z,8.82
2022-12-31T03:32:08.330Z,9.38
2022-12-31T03:33:11.776Z,10.43
2022-12-31T03:34:15.700Z,9.93
2022-12-31T03:35:20.661Z,9.57
2022-12-31T03:36:23.389Z,10.18
2022-12-31T03:37:26.128Z,9.48
2022-12-31T03:38:28.849Z,10.15
2022-12-31T03:39:31.618Z,9.45
2022-12-31T03:40:39.867Z,10.73
2022-12-31T03:41:42.633Z,10.77
2022-12-31T03:42:45.844Z,11.38
2022-12-31T03:43:48.491Z,10.57
2022-12-31T03:44:51.221Z,10.15
2022-12-31T03:45:54.940Z,10.13
2022-12-31T03:46:57.707Z,9.63
2022-12-31T03:48:01.781Z,11.85
2022-12-31T03:49:04.496Z,10.48
2022-12-31T03:50:09.009Z,12.10
2022-12-31T03:51:11.761Z,9.85
2022-12-31T03:52:14.498Z,10.77
2022-12-31T03:53:17.401Z,11.30
2022-12-31T03:54:20.208Z,10.98
2022-12-31T03:55:23.294Z,11.45
2022-12-31T03:56:26.058Z,10.38
2022-12-31T03:57:29.281Z,11.15
2022-12-31T03:58:32.215Z,12.13
2022-12-31T03:59:35.177Z,11.32
2022-12-31T04:00:37.954Z,12.25
2022-12-31T04:01:42.075Z,10.90
2022-12-31T04:02:46.070Z,11.40
2022-12-31T04:03:48.852Z,10.50
2022-12-31T04:04:51.524Z,11.43
2022-12-31T04:05:55.524Z,10.63
2022-12-31T04:06:58.275Z,10.00
2022-12-31T04:08:01.276Z,11.82
2022-12-31T04:09:04.302Z,11.43
2022-12-31T04:10:09.087Z,10.68
2022-12-31T04:11:15.976Z,11.50
2022-12-31T04:12:21.710Z,12.20
2022-12-31T04:13:24.479Z,12.02
2022-12-31T04:14:27.299Z,11.13
2022-12-31T04:15:30.121Z,10.63
2022-12-31T04:16:32.927Z,11.13
2022-12-31T04:17:35.797Z,11.07
2022-12-31T04:18:38.456Z,11.45
2022-12-31T04:19:41.296Z,11.13
2022-12-31T04:20:43.979Z,11.68
2022-12-31T04:21:46.676Z,11.65
2022-12-31T04:22:49.536Z,11.88
2022-12-31T04:23:52.236Z,11.77
2022-12-31T04:24:54.929Z,11.85
2022-12-31T04:25:57.824Z,11.23
2022-12-31T04:27:07.243Z,11.45
2022-12-31T04:28:10.476Z,8.25
2022-12-31T04:29:13.196Z,10.85
2022-12-31T04:30:16.020Z,11.48
2022-12-31T04:31:19.305Z,11.30
2022-12-31T04:32:22.080Z,11.75
2022-12-31T04:33:24.936Z,11.75
2022-12-31T04:34:27.687Z,12.13
2022-12-31T04:35:30.408Z,11.25
2022-12-31T04:36:33.118Z,10.82
2022-12-31T04:37:35.954Z,12.45
2022-12-31T04:38:38.715Z,10.70
2022-12-31T04:39:41.575Z,12.13
2022-12-31T04:41:04.078Z,11.85
2022-12-31T04:42:06.797Z,11.55
2022-12-31T04:43:09.522Z,11.90
2022-12-31T04:44:12.315Z,11.02
2022-12-31T04:45:15.218Z,12.73
2022-12-31T04:46:21.612Z,11.20
2022-12-31T04:47:24.388Z,11.63
2022-12-31T04:48:27.302Z,12.80
2022-12-31T04:49:30.488Z,12.73
2022-12-31T04:50:33.204Z,11.68
2022-12-31T04:51:36.328Z,11.80
2022-12-31T04:52:42.961Z,10.90
2022-12-31T04:53:46.260Z,11.93
2022-12-31T04:54:49.026Z,11.57
2022-12-31T04:55:52.111Z,12.98
2022-12-31T04:56:54.890Z,11.68
2022-12-31T04:57:57.644Z,11.63
2022-12-31T04:59:00.494Z,12.43
2022-12-31T05:00:04.047Z,12.32
2022-12-31T05:01:07.195Z,12.63
2022-12-31T05:02:10.317Z,12.20
2022-12-31T05:03:13.502Z,12.82
2022-12-31T05:04:16.301Z,11.95
2022-12-31T05:05:19.063Z,11.20
2022-12-31T05:06:23.421Z,11.48
2022-12-31T05:07:26.199Z,12.55
2022-12-31T05:08:29.480Z,12.73
2022-12-31T05:09:32.253Z,12.10
2022-12-31T05:10:34.895Z,12.25
2022-12-31T05:11:38.182Z,12.27
2022-12-31T05:12:40.962Z,11.52
2022-12-31T05:13:43.862Z,12.10
2022-12-31T05:14:46.716Z,13.00
2022-12-31T05:15:49.604Z,11.68
2022-12-31T05:16:53.033Z,12.93
2022-12-31T05:17:55.795Z,11.98
2022-12-31T05:18:58.588Z,12.30
2022-12-31T05:20:01.254Z,11.27
2022-12-31T05:21:04.599Z,11.20
2022-12-31T05:22:25.699Z,12.77
2022-12-31T05:23:28.722Z,11.73
2022-12-31T05:24:31.915Z,11.30
2022-12-31T05:25:34.597Z,11.10
2022-12-31T05:26:37.253Z,11.27
2022-12-31T05:27:39.963Z,12.02
2022-12-31T05:28:42.784Z,12.05
2022-12-31T05:29:45.561Z,12.02
2022-12-31T05:30:50.227Z,12.35
2022-12-31T05:31:53.030Z,10.32
2022-12-31T05:32:55.734Z,12.25
2022-12-31T05:33:58.562Z,11.98
2022-12-31T05:35:01.325Z,11.65
2022-12-31T05:36:04.357Z,11.82
2022-12-31T05:37:07.002Z,12.98
2022-12-31T05:38:09.684Z,12.00
2022-12-31T05:39:12.627Z,12.30
2022-12-31T05:40:15.430Z,11.93
2022-12-31T05:41:18.326Z,12.07
2022-12-31T05:42:21.533Z,12.68
2022-12-31T05:43:25.109Z,10.80
2022-12-31T05:44:27.901Z,11.38
2022-12-31T05:45:31.441Z,11.15
2022-12-31T05:46:34.316Z,10.75
2022-12-31T05:47:36.973Z,10.90
2022-12-31T05:48:39.663Z,10.75
2022-12-31T05:49:42.419Z,11.98
2022-12-31T05:50:45.115Z,10.65
2022-12-31T05:51:47.872Z,11.25
2022-12-31T05:52:50.727Z,11.38
2022-12-31T05:53:53.517Z,11.48
2022-12-31T05:54:56.284Z,11.27
2022-12-31T05:55:59.053Z,11.30
2022-12-31T05:57:01.868Z,11.27
2022-12-31T05:58:04.594Z,10.40
2022-12-31T05:59:07.359Z,10.93
2022-12-31T06:00:11.001Z,10.60
2022-12-31T06:01:16.261Z,10.55
2022-12-31T06:02:19.496Z,11.45
2022-12-31T06:03:22.285Z,10.95
2022-12-31T06:04:26.104Z,9.85
2022-12-31T06:05:28.784Z,10.95
2022-12-31T06:06:31.695Z,10.88
2022-12-31T06:07:34.491Z,11.32
2022-12-31T06:08:37.330Z,10.52
2022-12-31T06:09:40.061Z,10.90
2022-12-31T06:10:43.089Z,10.30
2022-12-31T06:11:46.169Z,10.50
2022-12-31T06:12:48.965Z,10.25
2022-12-31T06:13:51.840Z,11.25
2022-12-31T06:14:54.700Z,10.38
2022-12-31T06:15:57.454Z,10.93
2022-12-31T06:17:00.270Z,10.55
2022-12-31T06:18:03.127Z,11.02
2022-12-31T06:19:06.011Z,10.30
2022-12-31T06:20:13.048Z,10.73
2022-12-31T06:21:16.834Z,10.25
2022-12-31T06:22:19.731Z,10.65
2022-12-31T06:23:22.783Z,9.95
2022-12-31T06:24:25.508Z,9.95
2022-12-31T06:25:28.212Z,10.68
2022-12-31T06:26:30.885Z,10.23
2022-12-31T06:27:33.592Z,10.73
2022-12-31T06:28:36.444Z,10.02
2022-12-31T06:29:39.183Z,9.73
2022-12-31T06:30:42.071Z,10.15
2022-12-31T06:31:44.845Z,8.98
2022-12-31T06:32:47.716Z,9.82
2022-12-31T06:33:50.365Z,8.85
2022-12-31T06:34:53.156Z,9.77
2022-12-31T06:35:57.576Z,10.38
2022-12-31T06:37:00.406Z,9.52
2022-12-31T06:38:03.245Z,9.88
2022-12-31T06:39:06.970Z,9.85
2022-12-31T06:40:10.539Z,9.32
2022-12-31T06:41:14.777Z,10.00
2022-12-31T06:42:17.453Z,10.02
2022-12-31T06:43:20.489Z,9.55
2022-12-31T06:44:23.203Z,9.70
2022-12-31T06:45:25.959Z,9.68
2022-12-31T06:46:28.723Z,10.18
2022-12-31T06:47:31.444Z,9.27
2022-12-31T06:48:34.832Z,10.32
2022-12-31T06:49:37.571Z,10.00
2022-12-31T06:50:40.452Z,8.98
2022-12-31T06:51:45.968Z,8.95
2022-12-31T06:52:48.777Z,9.75
2022-12-31T06:53:52.377Z,10.35
2022-12-31T06:54:55.404Z,9.57
2022-12-31T06:55:58.319Z,9.20
2022-12-31T06:57:01.271Z,9.07
2022-12-31T06:58:04.266Z,9.52
2022-12-31T06:59:10.031Z,8.98
2022-12-31T07:00:13.471Z,9.73
2022-12-31T07:01:47.513Z,9.50
2022-12-31T07:03:19.708Z,9.27
2022-12-31T07:04:31.217Z,9.18
2022-12-31T07:06:15.454Z,8.63
2022-12-31T07:07:37.856Z,9.23
2022-12-31T07:08:43.404Z,9.13
2022-12-31T07:10:13.729Z,9.15
2022-12-31T07:11:27.164Z,9.73
2022-12-31T07:13:00.136Z,8.60
2022-12-31T07:14:24.452Z,8.85
2022-12-31T07:15:47.549Z,9.05
2022-12-31T07:17:25.476Z,8.48
2022-12-31T07:18:40.370Z,8.02
2022-12-31T07:19:57.349Z,8.02
2022-12-31T07:21:00.863Z,8.50
2022-12-31T07:22:03.883Z,8.73
2022-12-31T07:23:08.593Z,8.00
2022-12-31T07:24:12.452Z,8.52
2022-12-31T07:25:17.022Z,8.05
2022-12-31T07:26:44.444Z,8.68
2022-12-31T07:27:59.538Z,8.50
2022-12-31T07:29:26.555Z,8.40
2022-12-31T07:30:37.549Z,8.20
2022-12-31T07:32:21.393Z,7.82
2022-12-31T07:33:24.039Z,7.88
2022-12-31T07:34:53.166Z,7.63
2022-12-31T07:36:13.896Z,7.88
2022-12-31T07:37:46.094Z,8.00
2022-12-31T07:39:07.162Z,7.15
2022-12-31T07:40:17.592Z,7.00
2022-12-31T07:42:02.408Z,8.60
2022-12-31T07:43:12.961Z,7.55
2022-12-31T07:44:21.559Z,6.93
2022-12-31T07:45:35.950Z,7.68
2022-12-31T07:46:51.814Z,7.22
2022-12-31T07:48:02.143Z,7.72
2022-12-31T07:49:10.541Z,8.02
2022-12-31T07:50:17.946Z,8.57
2022-12-31T07:51:20.998Z,7.43
2022-12-31T07:52:24.091Z,9.52
2022-12-31T07:53:27.601Z,7.70
2022-12-31T07:54:30.259Z,7.72
2022-12-31T07:55:34.637Z,7.85
2022-12-31T07:56:37.503Z,8.02
2022-12-31T07:58:03.734Z,7.72
2022-12-31T07:59:27.387Z,7.45
2022-12-31T08:00:30.317Z,7.35
2022-12-31T08:01:46.779Z,7.18
2022-12-31T08:03:14.298Z,6.88
2022-12-31T08:05:01.302Z,7.07
2022-12-31T08:06:27.028Z,7.65
2022-12-31T08:07:57.854Z,7.05
2022-12-31T08:09:08.230Z,7.45
2022-12-31T08:10:28.193Z,7.03
2022-12-31T08:11:32.969Z,7.80
2022-12-31T08:12:37.016Z,7.13
2022-12-31T08:13:40.932Z,7.68
2022-12-31T08:14:46.362Z,7.30
2022-12-31T08:15:49.388Z,7.43
2022-12-31T08:16:52.528Z,7.18
2022-12-31T08:17:55.812Z,7.18
2022-12-31T08:18:58.952Z,7.10
2022-12-31T08:20:02.417Z,6.95
2022-12-31T08:21:22.774Z,7.68
2022-12-31T08:22:41.213Z,7.28
2022-12-31T08:24:14.056Z,7.20
2022-12-31T08:25:44.458Z,6.47
2022-12-31T08:27:08.656Z,6.55
2022-12-31T08:28:26.173Z,6.80
2022-12-31T08:29:41.652Z,6.93
2022-12-31T08:31:07.684Z,7.53
2022-12-31T08:32:13.240Z,6.65
2022-12-31T08:33:28.911Z,6.93
2022-12-31T08:34:34.632Z,6.72
2022-12-31T08:35:51.824Z,6.30
2022-12-31T08:37:27.207Z,7.55
2022-12-31T08:39:03.647Z,6.70
2022-12-31T08:40:36.827Z,6.28
2022-12-31T08:41:43.543Z,6.18
2022-12-31T08:43:11.606Z,6.72
2022-12-31T08:44:23.187Z,6.90
2022-12-31T08:45:33.077Z,5.93
2022-12-31T08:46:54.295Z,6.22
2022-12-31T08:48:00.438Z,6.88
2022-12-31T08:49:03.448Z,6.13
2022-12-31T08:50:12.638Z,6.40
2022-12-31T08:51:24.947Z,6.30
2022-12-31T08:52:27.995Z,6.28
2022-12-31T08:53:31.014Z,6.40
2022-12-31T08:54:34.032Z,6.35
2022-12-31T08:55:36.993Z,6.75
2022-12-31T08:56:54.700Z,6.28
2022-12-31T08:58:03.537Z,6.07
2022-12-31T08:59:26.859Z,6.03
2022-12-31T09:00:30.296Z,6.22
2022-12-31T09:01:44.775Z,5.90
2022-12-31T09:02:48.462Z,6.10
2022-12-31T09:04:13.918Z,6.25
2022-12-31T09:05:35.573Z,5.47
2022-12-31T09:06:48.681Z,5.68
2022-12-31T09:08:12.005Z,6.43
2022-12-31T09:09:23.788Z,6.25
2022-12-31T09:10:58.837Z,7.30
2022-12-31T09:12:14.905Z,6.93
2022-12-31T09:13:32.692Z,6.90
2022-12-31T09:14:50.695Z,6.13
2022-12-31T09:16:17.596Z,6.60
2022-12-31T09:17:48.098Z,5.57
2022-12-31T09:18:51.654Z,6.75
2022-12-31T09:19:54.642Z,5.70
2022-12-31T09:20:58.697Z,6.30
2022-12-31T09:22:01.726Z,6.70
2022-12-31T09:23:05.285Z,6.40
2022-12-31T09:24:09.607Z,5.55
2022-12-31T09:25:17.197Z,6.35
2022-12-31T09:26:29.258Z,5.47
2022-12-31T09:27:44.070Z,5.72
2022-12-31T09:29:04.634Z,5.30
2022-12-31T09:30:14.509Z,6.28
2022-12-31T09:31:24.948Z,5.90
2022-12-31T09:32:48.846Z,6.22
2022-12-31T09:34:01.757Z,5.72
2022-12-31T09:35:12.349Z,6.07
2022-12-31T09:36:25.929Z,6.10
2022-12-31T09:37:51.675Z,5.80
2022-12-31T09:39:04.599Z,6.18
2022-12-31T09:40:33.525Z,5.97
2022-12-31T09:41:45.177Z,6.50
2022-12-31T09:42:54.011Z,5.18
2022-12-31T09:44:00.912Z,5.38
2022-12-31T09:45:20.257Z,6.00
2022-12-31T09:47:07.864Z,5.78
2022-12-31T09:48:49.318Z,5.78
2022-12-31T09:50:15.971Z,5.90
2022-12-31T09:51:34.035Z,5.82
2022-12-31T09:53:19.019Z,5.07
2022-12-31T09:54:33.740Z,5.00
2022-12-31T09:56:16.091Z,5.85
2022-12-31T09:57:28.035Z,6.22
2022-12-31T09:58:48.487Z,5.40
2022-12-31T10:00:09.662Z,5.55
2022-12-31T10:01:15.000Z,5.10
2022-12-31T10:02:26.839Z,5.72
2022-12-31T10:04:11.137Z,6.28
2022-12-31T10:05:34.333Z,5.47
2022-12-31T10:06:55.547Z,5.55
2022-12-31T10:08:19.644Z,5.85
2022-12-31T10:09:28.675Z,5.93
2022-12-31T10:10:38.319Z,5.57
2022-12-31T10:12:04.122Z,5.60
2022-12-31T10:13:20.173Z,5.90
2022-12-31T10:14:47.168Z,5.45
2022-12-31T10:16:09.854Z,5.35
2022-12-31T10:17:36.049Z,6.28
2022-12-31T10:18:44.953Z,5.30
2022-12-31T10:19:56.489Z,5.57
2022-12-31T10:21:20.602Z,5.38
2022-12-31T10:23:05.178Z,5.68
2022-12-31T10:24:35.049Z,5.85
2022-12-31T10:25:40.582Z,4.82
2022-12-31T10:27:14.366Z,4.90
2022-12-31T10:28:28.703Z,5.00
2022-12-31T10:29:37.039Z,4.90
2022-12-31T10:30:45.713Z,5.18
2022-12-31T10:32:00.253Z,5.13
2022-12-31T10:33:20.592Z,5.35
2022-12-31T10:34:49.983Z,5.78
2022-12-31T10:36:18.100Z,4.85
2022-12-31T10:37:53.097Z,5.13
2022-12-31T10:39:07.507Z,5.00
2022-12-31T10:40:54.386Z,5.30
2022-12-31T10:42:02.635Z,5.78
2022-12-31T10:43:17.126Z,5.25
2022-12-31T10:44:41.139Z,4.07
2022-12-31T10:46:23.130Z,4.55
2022-12-31T10:47:38.341Z,4.88
2022-12-31T10:49:06.455Z,4.85
2022-12-31T10:50:18.516Z,4.43
2022-12-31T10:51:47.863Z,4.82
2022-12-31T10:53:23.270Z,3.55
2022-12-31T10:54:57.752Z,4.22
2022-12-31T10:56:18.829Z,4.85
2022-12-31T10:57:46.916Z,4.38
2022-12-31T10:59:10.460Z,4.15
2022-12-31T11:00:21.134Z,4.70
2022-12-31T11:01:37.949Z,4.75
2022-12-31T11:02:40.838Z,4.68
2022-12-31T11:03:46.740Z,4.95
2022-12-31T11:05:07.721Z,4.22
2022-12-31T11:06:39.463Z,3.92
2022-12-31T11:08:27.866Z,4.22
2022-12-31T11:09:57.361Z,4.25
2022-12-31T11:11:17.861Z,4.10
2022-12-31T11:12:57.482Z,3.97
2022-12-31T11:14:24.157Z,4.32
2022-12-31T11:15:55.005Z,3.70
2022-12-31T11:17:25.414Z,3.95
2022-12-31T11:18:48.169Z,4.43
2022-12-31T11:20:19.722Z,4.68
2022-12-31T11:21:39.404Z,3.80
2022-12-31T11:23:02.460Z,3.78
2022-12-31T11:24:26.317Z,4.03
2022-12-31T11:25:48.259Z,3.75
2022-12-31T11:27:15.747Z,4.22
2022-12-31T11:28:27.333Z,4.20
2022-12-31T11:30:00.141Z,4.35
2022-12-31T11:31:23.741Z,3.97
2022-12-31T11:32:36.095Z,4.68
2022-12-31T11:34:14.312Z,3.92
2022-12-31T11:35:29.419Z,4.00
2022-12-31T11:36:51.974Z,5.00
2022-12-31T11:38:15.994Z,4.18
2022-12-31T11:40:06.100Z,4.38
2022-12-31T11:41:16.881Z,4.10
2022-12-31T11:43:35.648Z,4.10
2022-12-31T11:45:01.647Z,4.00
2022-12-31T11:46:16.398Z,4.43
2022-12-31T11:47:44.735Z,4.35
2022-12-31T11:50:13.546Z,3.72
2022-12-31T11:51:28.081Z,4.40
2022-12-31T11:52:48.877Z,4.13
2022-12-31T11:53:57.706Z,3.90
2022-12-31T11:55:28.721Z,4.07
2022-12-31T11:57:39.936Z,3.97
2022-12-31T11:58:54.171Z,6.97
2022-12-31T12:00:07.307Z,7.90
2022-12-31T12:01:18.735Z,5.90
2022-12-31T12:02:26.288Z,4.47
2022-12-31T12:03:30.480Z,4.95
2022-12-31T12:04:33.793Z,4.00
2022-12-31T12:05:36.853Z,3.50
2022-12-31T12:06:40.813Z,3.45
2022-12-31T12:07:43.791Z,4.00
2022-12-31T12:08:47.668Z,3.30
2022-12-31T12:09:50.658Z,3.47
2022-12-31T12:11:04.000Z,3.33
2022-12-31T12:12:07.076Z,3.10
2022-12-31T12:13:23.356Z,4.00
2022-12-31T12:14:35.383Z,3.42
2022-12-31T12:15:38.449Z,2.90
2022-12-31T12:16:41.219Z,3.15
2022-12-31T12:17:44.155Z,4.03
2022-12-31T12:18:51.956Z,3.72
2022-12-31T12:19:56.652Z,2.53
2022-12-31T12:21:23.111Z,3.28
2022-12-31T12:22:26.674Z,3.53
2022-12-31T12:23:29.594Z,4.00
2022-12-31T12:24:32.375Z,4.65
2022-12-31T12:25:40.114Z,3.88
2022-12-31T12:26:44.561Z,3.30
2022-12-31T12:27:47.815Z,3.35
2022-12-31T12:28:50.775Z,3.72
2022-12-31T12:29:53.616Z,3.70
2022-12-31T12:30:59.742Z,3.55
2022-12-31T12:32:06.910Z,3.38
2022-12-31T12:33:20.051Z,3.72
2022-12-31T12:34:28.808Z,3.40
2022-12-31T12:35:36.037Z,3.58
2022-12-31T12:36:46.495Z,3.50
2022-12-31T12:39:02.467Z,3.00
2022-12-31T12:40:20.323Z,3.72
2022-12-31T12:41:26.517Z,3.20
2022-12-31T12:42:30.279Z,3.67
2022-12-31T12:43:35.248Z,3.17
2022-12-31T12:44:38.473Z,3.85
2022-12-31T12:45:51.657Z,3.65
2022-12-31T12:46:55.806Z,3.40
2022-12-31T12:48:01.527Z,3.03
2022-12-31T12:49:04.408Z,3.58
2022-12-31T12:50:16.391Z,4.45
2022-12-31T12:51:25.075Z,3.47
2022-12-31T12:52:45.024Z,3.20
2022-12-31T12:54:14.937Z,4.03
2022-12-31T12:55:39.755Z,3.80
2022-12-31T12:57:03.751Z,3.35
2022-12-31T12:58:19.145Z,3.38
2022-12-31T12:59:40.874Z,3.53
2022-12-31T13:01:10.835Z,3.60
2022-12-31T13:02:43.116Z,4.22
2022-12-31T13:05:40.112Z,3.72
2022-12-31T13:07:01.230Z,3.53
2022-12-31T13:08:35.625Z,3.83
2022-12-31T13:09:55.916Z,3.90
2022-12-31T13:11:04.162Z,3.97
2022-12-31T13:13:13.752Z,4.55
2022-12-31T13:14:22.806Z,3.42
2022-12-31T13:15:49.729Z,3.42
2022-12-31T13:17:14.751Z,3.10
2022-12-31T13:18:30.212Z,3.13
2022-12-31T13:19:54.070Z,3.25
2022-12-31T13:21:20.157Z,3.78
2022-12-31T13:22:42.705Z,4.05
2022-12-31T13:24:01.540Z,4.40
2022-12-31T13:25:04.267Z,3.40
2022-12-31T13:26:19.354Z,3.60
2022-12-31T13:27:35.658Z,3.70
2022-12-31T13:28:42.025Z,3.47
2022-12-31T13:29:46.886Z,3.80
2022-12-31T13:30:53.870Z,3.85
2022-12-31T13:31:57.146Z,3.92
2022-12-31T13:33:02.598Z,3.45
2022-12-31T13:34:11.318Z,3.33
2022-12-31T13:35:38.409Z,4.00
2022-12-31T13:36:43.533Z,4.15
2022-12-31T13:37:47.369Z,3.88
2022-12-31T13:38:52.681Z,3.25
2022-12-31T13:40:24.474Z,3.75
2022-12-31T13:41:32.066Z,3.67
2022-12-31T13:42:44.905Z,4.22
2022-12-31T13:44:17.572Z,3.83
2022-12-31T13:45:29.422Z,3.42
2022-12-31T13:46:59.976Z,3.75
2022-12-31T13:48:07.997Z,3.60
2022-12-31T13:49:26.261Z,4.22
2022-12-31T13:50:34.263Z,3.88
2022-12-31T13:51:42.933Z,3.22
2022-12-31T13:52:52.248Z,3.75
2022-12-31T13:54:02.170Z,3.95
2022-12-31T13:55:40.805Z,4.10
2022-12-31T13:56:45.139Z,4.10
2022-12-31T13:57:55.232Z,3.85
2022-12-31T13:59:13.225Z,3.95
2022-12-31T14:00:27.671Z,4.07
2022-12-31T14:01:41.958Z,4.25
2022-12-31T14:02:52.066Z,3.35
2022-12-31T14:03:57.874Z,4.57
2022-12-31T14:05:09.709Z,4.10
2022-12-31T14:06:18.789Z,4.25
2022-12-31T14:07:35.426Z,3.55
2022-12-31T14:08:40.758Z,3.67
2022-12-31T14:09:43.719Z,3.65
2022-12-31T14:11:05.424Z,3.72
2022-12-31T14:12:38.660Z,3.97
2022-12-31T14:13:47.416Z,4.20
2022-12-31T14:15:08.836Z,3.70
2022-12-31T14:16:23.632Z,3.83
2022-12-31T14:17:41.067Z,4.22
2022-12-31T14:18:48.337Z,4.40
2022-12-31T14:20:02.084Z,3.70
2022-12-31T14:21:14.299Z,4.32
2022-12-31T14:22:20.957Z,3.95
2022-12-31T14:23:48.197Z,3.80
2022-12-31T14:24:52.102Z,3.65
2022-12-31T14:26:05.664Z,2.88
2022-12-31T14:27:23.028Z,4.28
2022-12-31T14:28:48.006Z,3.90
2022-12-31T14:29:56.614Z,3.90
2022-12-31T14:31:11.789Z,3.72
2022-12-31T14:32:26.127Z,4.70
2022-12-31T14:33:31.453Z,4.00
2022-12-31T14:34:56.460Z,4.20
2022-12-31T14:36:10.655Z,3.90
2022-12-31T14:37:32.581Z,4.35
2022-12-31T14:39:02.794Z,3.55
2022-12-31T14:40:20.474Z,4.00
2022-12-31T14:41:38.374Z,3.70
2022-12-31T14:43:07.571Z,4.07
2022-12-31T14:44:16.539Z,3.97
2022-12-31T14:45:31.052Z,3.78
2022-12-31T14:47:00.771Z,3.72
2022-12-31T14:48:22.428Z,4.05
2022-12-31T14:49:34.444Z,4.15
2022-12-31T14:50:37.946Z,4.55
2022-12-31T14:51:40.690Z,3.80
2022-12-31T14:53:00.965Z,3.83
2022-12-31T14:54:04.653Z,3.65
2022-12-31T14:55:09.959Z,4.25
2022-12-31T14:56:31.265Z,3.85
2022-12-31T14:58:16.721Z,3.60
2022-12-31T14:59:02.782Z,3.65
2022-12-31T15:00:24.250Z,3.58
2022-12-31T15:01:27.265Z,4.10
2022-12-31T15:02:35.129Z,3.80
2022-12-31T15:03:45.463Z,4.40
2022-12-31T15:06:16.889Z,3.70
2022-12-31T15:07:33.903Z,3.35
2022-12-31T15:08:42.638Z,3.42
2022-12-31T15:10:10.443Z,4.20
2022-12-31T15:11:16.171Z,3.97
2022-12-31T15:12:30.920Z,3.42
2022-12-31T15:13:56.952Z,3.38
2022-12-31T15:15:37.855Z,3.70
2022-12-31T15:17:12.430Z,4.50
2022-12-31T15:18:23.768Z,3.85
2022-12-31T15:19:26.433Z,4.20
2022-12-31T15:20:31.972Z,4.10
2022-12-31T15:21:40.704Z,4.65
2022-12-31T15:22:48.402Z,3.88
2022-12-31T15:23:51.157Z,4.07
2022-12-31T15:24:54.008Z,3.97
2022-12-31T15:26:01.178Z,4.47
2022-12-31T15:27:06.334Z,4.75
2022-12-31T15:28:26.941Z,4.63
2022-12-31T15:29:34.305Z,4.07
2022-12-31T15:30:45.876Z,4.32
2022-12-31T15:31:48.835Z,4.50
2022-12-31T15:32:51.798Z,3.63
2022-12-31T15:34:05.479Z,4.25
2022-12-31T15:35:22.948Z,4.15
2022-12-31T15:36:30.144Z,3.67
2022-12-31T15:37:36.612Z,3.90
2022-12-31T15:38:40.871Z,3.47
2022-12-31T15:39:44.479Z,4.45
2022-12-31T15:40:52.116Z,4.05
2022-12-31T15:43:36.224Z,4.70
2022-12-31T15:44:57.342Z,4.55
2022-12-31T15:46:00.221Z,3.70
2022-12-31T15:47:30.532Z,4.20